createdAt,value
2023-05-14T00:01:08.013Z,100963.07020423094
2023-05-14T00:04:04.661Z,100962.94443710025
2023-05-14T00:07:00.164Z,100962.81106965445
2023-05-14T00:09:55.673Z,100961.476044574
2023-05-14T00:12:51.324Z,100961.47496453662
2023-05-14T00:15:46.897Z,100950.66006387248
2023-05-14T00:18:43.478Z,100956.80313878448
2023-05-14T00:21:38.964Z,100949.77243158022
2023-05-14T00:24:35.528Z,100956.08606784405
2023-05-14T00:27:31.074Z,100953.54521551002
2023-05-14T00:30:26.619Z,100954.03543006923
2023-05-14T00:33:22.190Z,100952.2190278737
2023-05-14T00:36:17.750Z,100943.18469995749
2023-05-14T00:39:13.283Z,100941.97406705678
2023-05-14T00:42:09.909Z,100944.2444428414
2023-05-14T00:45:06.430Z,100936.06002349427
2023-05-14T00:48:02.083Z,100936.1051167882
2023-05-14T00:50:59.562Z,100937.48517896667
2023-05-14T00:53:55.101Z,100939.93510263614
2023-05-14T00:56:50.687Z,100939.87670886752
2023-05-14T00:59:46.262Z,100934.29734822793
2023-05-14T01:02:42.891Z,100934.36340470875
2023-05-14T01:05:43.369Z,100935.51712803633
2023-05-14T01:08:49.856Z,100929.42295862862
2023-05-14T01:11:55.435Z,100919.73117569997
2023-05-14T01:14:56.963Z,100919.02159457373
2023-05-14T01:17:56.582Z,100923.71925409787
2023-05-14T01:20:54.069Z,100919.22358077503
2023-05-14T01:23:50.621Z,100919.93103732924
2023-05-14T01:26:46.184Z,100920.25027362474
2023-05-14T01:29:50.721Z,100924.2307980318
2023-05-14T01:32:51.680Z,100920.89994351407
2023-05-14T01:35:46.868Z,100910.4149116759
2023-05-14T01:38:46.383Z,100915.78870375222
2023-05-14T01:41:42.941Z,100907.33360122947
2023-05-14T01:44:40.574Z,100904.6302465896
2023-05-14T01:47:36.109Z,100904.61496792092
2023-05-14T01:50:31.644Z,100902.48200409733
2023-05-14T01:53:28.176Z,100897.9398752736
2023-05-14T01:56:24.761Z,100899.41302903256
2023-05-14T01:59:20.305Z,100895.6977380765
2023-05-14T02:02:15.860Z,100893.19840192719
2023-05-14T02:05:12.417Z,100894.96584188807
2023-05-14T02:08:08.016Z,100896.65399734076
2023-05-14T02:11:03.552Z,100888.51857466147
2023-05-14T02:13:59.136Z,100886.1557779113
2023-05-14T02:16:54.702Z,100887.4446147856
2023-05-14T02:19:50.233Z,100888.12141413732
2023-05-14T02:22:45.827Z,100887.8327637041
2023-05-14T02:25:42.356Z,100884.544831447
2023-05-14T02:28:37.940Z,100889.97759541406
2023-05-14T02:31:34.511Z,100885.57409851727
2023-05-14T02:34:30.055Z,100888.63867642792
2023-05-14T02:37:25.581Z,100883.46624543797
2023-05-14T02:40:21.281Z,100884.22853847953
2023-05-14T02:43:16.722Z,100889.12216781023
2023-05-14T02:46:13.329Z,100885.34429406107
2023-05-14T02:49:08.833Z,100879.19905999997
2023-05-14T02:52:05.450Z,100876.03963986922
2023-05-14T02:55:00.964Z,100876.16617977111
2023-05-14T02:57:56.503Z,100875.15796753741
2023-05-14T03:00:52.115Z,100876.35686353168
2023-05-14T03:03:47.647Z,100869.85710692791
2023-05-14T03:06:43.197Z,100869.23044352897
2023-05-14T03:09:39.767Z,100865.44281915914
2023-05-14T03:12:35.336Z,100865.37185625568
2023-05-14T03:15:30.931Z,100865.77143162559
2023-05-14T03:18:28.492Z,100860.86969149963
2023-05-14T03:21:25.025Z,100867.95942700651
2023-05-14T03:24:20.575Z,100865.83735067201
2023-05-14T03:27:16.133Z,100863.57158195687
2023-05-14T03:30:12.708Z,100863.4338107331
2023-05-14T03:33:10.252Z,100865.41142884229
2023-05-14T03:36:05.798Z,100864.12293451425
2023-05-14T03:39:01.360Z,100857.74231744393
2023-05-14T03:41:58.954Z,100859.33788071883
2023-05-14T03:44:54.512Z,100860.68670374603
2023-05-14T03:47:50.135Z,100862.03169042079
2023-05-14T03:50:45.593Z,100861.10461063402
2023-05-14T03:53:41.163Z,100862.80490366842
2023-05-14T03:56:36.745Z,100862.90862525912
2023-05-14T03:59:32.308Z,100859.87476025321
2023-05-14T04:02:27.935Z,100861.92967110987
2023-05-14T04:05:23.411Z,100863.08080068856
2023-05-14T04:08:18.975Z,100868.52357363736
2023-05-14T04:11:14.523Z,100872.92906764415
2023-05-14T04:14:10.081Z,100864.23163181647
2023-05-14T04:17:05.655Z,100869.86074318622
2023-05-14T04:20:01.231Z,100865.99509990853
2023-05-14T04:22:56.782Z,100867.28019062875
2023-05-14T04:25:52.388Z,100875.06125283145
2023-05-14T04:28:47.871Z,100872.60463745832
2023-05-14T04:31:44.567Z,100875.8871341782
2023-05-14T04:34:41.041Z,100882.65653103047
2023-05-14T04:37:36.591Z,100880.40624270348
2023-05-14T04:40:32.148Z,100873.82585259127
2023-05-14T04:43:27.703Z,100867.06959865839
2023-05-14T04:46:24.323Z,100870.84308614221
2023-05-14T04:49:20.905Z,100859.45525758332
2023-05-14T04:52:16.404Z,100866.0874825575
2023-05-14T04:55:11.951Z,100868.03472330699
2023-05-14T04:58:07.523Z,100860.53437422552
2023-05-14T05:01:06.157Z,100846.72542472654
2023-05-14T05:04:02.662Z,100849.938003252
2023-05-14T05:06:58.165Z,100847.15028812656
2023-05-14T05:09:54.746Z,100850.8278691423
2023-05-14T05:12:50.258Z,100847.00943531295
2023-05-14T05:15:45.953Z,100847.10367283715
2023-05-14T05:18:41.501Z,100844.05764820788
2023-05-14T05:21:39.984Z,100853.3987905883
2023-05-14T05:24:35.540Z,100854.79698325906
2023-05-14T05:27:31.099Z,100854.42751511707
2023-05-14T05:30:26.736Z,100851.49826395391
2023-05-14T05:33:22.190Z,100851.8507016134
2023-05-14T05:36:19.774Z,100853.56521322735
2023-05-14T05:39:16.333Z,100852.67939505023
2023-05-14T05:42:12.915Z,100854.54794958535
2023-05-14T05:45:09.454Z,100853.04534172622
2023-05-14T05:48:06.041Z,100856.46695219219
2023-05-14T05:51:04.563Z,100852.40398120762
2023-05-14T05:54:00.193Z,100857.92144006991
2023-05-14T05:56:55.677Z,100849.34836425642
2023-05-14T05:59:51.299Z,100851.86713559103
2023-05-14T06:02:46.918Z,100847.6161364788
2023-05-14T06:05:43.550Z,100846.942397442
2023-05-14T06:08:38.941Z,100839.7215308356
2023-05-14T06:11:34.507Z,100838.41246556408
2023-05-14T06:14:30.076Z,100837.12381204845
2023-05-14T06:17:25.719Z,100833.33292102645
2023-05-14T06:20:21.292Z,100832.86060072908
2023-05-14T06:23:16.746Z,100817.80063896289
2023-05-14T06:26:12.305Z,100825.83394000705
2023-05-14T06:29:07.858Z,100831.67098598441
2023-05-14T06:32:04.465Z,100834.02640942589
2023-05-14T06:34:59.975Z,100830.69389523366
2023-05-14T06:37:55.522Z,100822.37730691244
2023-05-14T06:40:53.117Z,100832.65225956374
2023-05-14T06:43:48.663Z,100827.67585621605
2023-05-14T06:46:44.247Z,100833.54437434842
2023-05-14T06:49:39.749Z,100831.04471960562
2023-05-14T06:52:36.351Z,100822.1502071291
2023-05-14T06:55:32.917Z,100809.83509855365
2023-05-14T06:58:28.487Z,100792.14927250778
2023-05-14T07:01:24.113Z,100767.33314197378
2023-05-14T07:04:19.698Z,100777.34810231712
2023-05-14T07:07:18.158Z,100777.94180925172
2023-05-14T07:10:14.723Z,100778.97042493957
2023-05-14T07:13:10.247Z,100772.47239451556
2023-05-14T07:16:06.833Z,100782.4374281584
2023-05-14T07:19:02.413Z,100781.39644572475
2023-05-14T07:21:57.934Z,100777.31843945484
2023-05-14T07:24:53.502Z,100765.5833945097
2023-05-14T07:27:49.051Z,100760.2457189558
2023-05-14T07:30:44.621Z,100763.6735857109
2023-05-14T07:33:40.200Z,100764.37374270037
2023-05-14T07:36:36.759Z,100769.17085240036
2023-05-14T07:39:32.301Z,100758.5883276806
2023-05-14T07:42:35.749Z,100759.6437259912
2023-05-14T07:45:29.448Z,100759.43322226188
2023-05-14T07:48:25.048Z,100762.19254908705
2023-05-14T07:51:20.580Z,100759.6437259912
2023-05-14T07:57:21.644Z,100753.05042430341
2023-05-14T08:00:19.214Z,100753.78812251573
2023-05-14T08:03:15.023Z,100757.33508757487
2023-05-14T08:06:10.337Z,100751.65791817692
2023-05-14T08:09:06.927Z,100752.54032423944
2023-05-14T08:12:02.434Z,100748.52542507282
2023-05-14T08:15:02.994Z,100733.95531946074
2023-05-14T08:18:03.739Z,100737.5719785429
2023-05-14T08:21:03.324Z,100734.86478569929
2023-05-14T08:23:59.696Z,100718.8088402834
2023-05-14T08:26:56.224Z,100712.86908637793
2023-05-14T08:29:52.756Z,100710.9007598919
2023-05-14T08:32:48.402Z,100706.25971926995
2023-05-14T08:35:43.904Z,100700.15691687384
2023-05-14T08:38:39.482Z,100691.98146342409
2023-05-14T08:41:37.024Z,100692.93201395145
2023-05-14T08:44:39.571Z,100688.97834356467
2023-05-14T08:47:36.206Z,100692.1289055563
2023-05-14T08:50:35.673Z,100694.07453929793
2023-05-14T08:53:31.243Z,100693.14102643279
2023-05-14T08:56:26.756Z,100700.14025442381
2023-05-14T08:59:22.363Z,100695.68106836654
2023-05-14T09:02:20.979Z,100691.19738138649
2023-05-14T09:05:17.500Z,100687.81357911282
2023-05-14T09:08:13.003Z,100686.08250593602
2023-05-14T09:11:08.638Z,100685.40140442431
2023-05-14T09:14:04.104Z,100679.33677005282
2023-05-14T09:16:59.710Z,100682.5701413294
2023-05-14T09:19:56.253Z,100680.69151855726
2023-05-14T09:22:52.820Z,100688.8311803476
2023-05-14T09:25:49.399Z,100687.68879335438
2023-05-14T09:28:48.912Z,100680.26661175431
2023-05-14T09:31:45.515Z,100674.70529845724
2023-05-14T09:34:42.081Z,100669.58219666198
2023-05-14T09:37:41.586Z,100662.85756115621
2023-05-14T09:40:39.147Z,100663.01400126265
2023-05-14T09:43:35.727Z,100654.62777883813
2023-05-14T09:46:31.239Z,100655.51656059224
2023-05-14T09:49:27.846Z,100653.656906469
2023-05-14T09:52:23.368Z,100640.90571393557
2023-05-14T09:55:19.939Z,100635.06553054569
2023-05-14T09:58:16.506Z,100626.46979496435
2023-05-14T10:01:19.089Z,100612.88037402189
2023-05-14T10:04:14.634Z,100604.6654469327
2023-05-14T10:07:12.180Z,100590.34292427737
2023-05-14T10:10:15.797Z,100592.8234068716
2023-05-14T10:13:14.306Z,100592.07068194721
2023-05-14T10:16:16.827Z,100586.05286581091
2023-05-14T10:19:15.410Z,100589.85188011083
2023-05-14T10:22:14.966Z,100584.65623724977
2023-05-14T10:25:11.500Z,100586.37164893327
2023-05-14T10:28:08.000Z,100590.92279057768
2023-05-14T10:31:03.640Z,100583.94802030807
2023-05-14T10:33:59.929Z,100592.8869972058
2023-05-14T10:36:58.664Z,100576.88101146219
2023-05-14T10:39:59.269Z,100577.53109896534
2023-05-14T10:42:58.823Z,100570.54542356111
2023-05-14T10:45:55.345Z,100560.84296570596
2023-05-14T10:48:50.975Z,100563.37045388272
2023-05-14T10:51:49.552Z,100563.84605901322
2023-05-14T10:54:50.069Z,100559.84321972691
2023-05-14T10:57:46.604Z,100562.07565220047
2023-05-14T11:00:48.162Z,100557.08781743253
2023-05-14T11:03:46.928Z,100555.76831958826
2023-05-14T11:06:44.257Z,100556.21098095288
2023-05-14T11:09:40.837Z,100550.0391191384
2023-05-14T11:12:37.388Z,100556.86092434007
2023-05-14T11:15:35.930Z,100551.48130795672
2023-05-14T11:18:33.521Z,100528.83520036258
2023-05-14T11:21:32.090Z,100524.98640017967
2023-05-14T11:24:28.611Z,100519.66803991498
2023-05-14T11:27:24.154Z,100504.40096721194
2023-05-14T11:30:21.931Z,100496.1482570405
2023-05-14T11:33:19.364Z,100497.95167533612
2023-05-14T11:36:16.843Z,100500.88161286458
2023-05-14T11:39:18.359Z,100490.56335718001
2023-05-14T11:42:17.908Z,100491.89074225794
2023-05-14T11:45:24.465Z,100496.55210462674
2023-05-14T11:48:21.000Z,100482.22484119926
2023-05-14T11:51:17.592Z,100482.10116727787
2023-05-14T11:54:14.127Z,100487.81931341223
2023-05-14T11:57:10.685Z,100483.32602790717
2023-05-14T12:00:09.286Z,100465.6673835802
2023-05-14T12:03:04.862Z,100469.54140665922
2023-05-14T12:06:02.383Z,100457.99030745412
2023-05-14T12:09:00.913Z,100454.08356678911
2023-05-14T12:11:56.457Z,100464.89022369002
2023-05-14T12:14:53.044Z,100457.84354814811
2023-05-14T12:17:50.694Z,100448.5480126155
2023-05-14T12:20:47.161Z,100445.07499275864
2023-05-14T12:23:42.725Z,100430.38484103525
2023-05-14T12:26:44.285Z,100438.77196286626
2023-05-14T12:29:39.854Z,100439.67045867938
2023-05-14T12:32:41.488Z,100436.9599157179
2023-05-14T12:35:37.938Z,100441.86504303089
2023-05-14T12:38:37.506Z,100434.40634429405
2023-05-14T12:41:33.050Z,100440.53186760368
2023-05-14T12:44:29.650Z,100439.27831435436
2023-05-14T12:47:26.249Z,100435.19610699722
2023-05-14T12:50:23.028Z,100430.8011059596
2023-05-14T12:53:20.294Z,100421.88831351181
2023-05-14T12:56:16.847Z,100419.70234946592
2023-05-14T12:59:12.390Z,100424.80960101132
2023-05-14T13:02:10.986Z,100413.78661389563
2023-05-14T13:05:07.508Z,100407.92845728027
2023-05-14T13:08:04.067Z,100393.30950650721
2023-05-14T13:10:59.615Z,100375.26356883037
2023-05-14T13:13:55.225Z,100382.71334036798
2023-05-14T13:16:50.791Z,100379.1605683948
2023-05-14T13:19:46.321Z,100366.5311911203
2023-05-14T13:22:42.049Z,100341.49479404003
2023-05-14T13:25:38.419Z,100337.14678501367
2023-05-14T13:28:33.988Z,100328.1648940988
2023-05-14T13:31:36.772Z,100334.24040188207
2023-05-14T13:34:34.113Z,100339.18874720535
2023-05-14T13:37:29.665Z,100337.47170136866
2023-05-14T13:40:26.222Z,100333.21016546129
2023-05-14T13:43:21.740Z,100313.22803458876
2023-05-14T13:46:17.357Z,100316.17294702705
2023-05-14T13:49:13.879Z,100326.10657534358
2023-05-14T13:52:09.440Z,100332.568160724
2023-05-14T13:55:05.983Z,100334.36110171584
2023-05-14T13:58:02.605Z,100335.4924620551
2023-05-14T14:00:59.134Z,100332.01662414143
2023-05-14T14:03:54.747Z,100330.38754063446
2023-05-14T14:06:50.280Z,100348.28279703576
2023-05-14T14:09:45.826Z,100335.13149725359
2023-05-14T14:12:41.421Z,100334.27657197272
2023-05-14T14:15:37.951Z,100323.24456962117
2023-05-14T14:18:33.531Z,100312.9274754966
2023-05-14T14:21:29.040Z,100303.37701996333
2023-05-14T14:24:24.711Z,100312.23662276998
2023-05-14T14:30:25.724Z,100318.94140525856
2023-05-14T14:33:22.281Z,100323.32724243915
2023-05-14T14:36:17.837Z,100322.05823443383
2023-05-14T14:39:13.437Z,100316.56913038863
2023-05-14T14:42:08.967Z,100320.62408520181
2023-05-14T14:45:06.519Z,100304.42994541304
2023-05-14T14:48:12.113Z,100308.9012130234
2023-05-14T14:51:08.607Z,100315.68645254978
2023-05-14T14:54:06.206Z,100314.00407582065
2023-05-14T14:57:01.738Z,100299.52383080093
2023-05-14T14:59:57.330Z,100300.84548922925
2023-05-14T15:02:52.887Z,100278.6699613646
2023-05-14T15:05:48.413Z,100277.78463132231
2023-05-14T15:08:43.991Z,100280.89497929368
2023-05-14T15:11:40.542Z,100292.77078375476
2023-05-14T15:14:36.067Z,100279.24227876445
2023-05-14T15:17:31.675Z,100279.90733927886
2023-05-14T15:20:27.277Z,100265.6035112641
2023-05-14T15:23:25.808Z,100256.22281044332
2023-05-14T15:26:22.297Z,100248.50205910005
2023-05-14T15:29:17.921Z,100251.7331279397
2023-05-14T15:32:14.431Z,100245.33432521175
2023-05-14T15:35:10.009Z,100253.3280270643
2023-05-14T15:38:08.564Z,100235.18302005735
2023-05-14T15:41:09.141Z,100245.85511303306
2023-05-14T15:44:05.720Z,100253.05201656565
2023-05-14T15:47:02.205Z,100253.96192597793
2023-05-14T15:49:58.800Z,100246.79235350847
2023-05-14T15:52:54.394Z,100228.18064546066
2023-05-14T15:55:49.932Z,100238.90732859095
2023-05-14T15:58:45.451Z,100227.71244151404
2023-05-14T16:01:41.032Z,100238.54981995585
2023-05-14T16:04:36.602Z,100236.010623822
2023-05-14T16:07:33.182Z,100232.48152533585
2023-05-14T16:10:28.730Z,100239.42791524414
2023-05-14T16:13:24.290Z,100227.02564135044
2023-05-14T16:16:22.952Z,100221.59579880418
2023-05-14T16:19:20.889Z,100212.19491513827
2023-05-14T16:22:15.967Z,100210.81149753716
2023-05-14T16:25:11.525Z,100219.79958999695
2023-05-14T16:28:08.077Z,100208.76846437174
2023-05-14T16:31:03.942Z,100213.97366897116
2023-05-14T16:33:59.219Z,100214.44117899894
2023-05-14T16:36:54.768Z,100210.64893599124
2023-05-14T16:39:50.333Z,100199.12917532022
2023-05-14T16:42:48.506Z,100207.72473484659
2023-05-14T16:45:44.510Z,100222.99687894247
2023-05-14T16:48:40.001Z,100219.25116596183
2023-05-14T16:51:37.883Z,100214.4272810281
2023-05-14T16:54:33.094Z,100223.44129591942
2023-05-14T16:57:28.670Z,100216.6293955069
2023-05-14T17:00:24.464Z,100216.90193706872
2023-05-14T17:03:20.776Z,100216.70423885203
2023-05-14T17:06:16.325Z,100207.94776250525
2023-05-14T17:09:11.924Z,100207.23300432543
2023-05-14T17:12:09.465Z,100187.14087311506
2023-05-14T17:15:06.022Z,100190.06082126556
2023-05-14T17:18:03.611Z,100185.83959066554
2023-05-14T17:21:00.157Z,100179.08329753252
2023-05-14T17:23:55.728Z,100181.40128018858
2023-05-14T17:26:51.273Z,100178.67055146146
2023-05-14T17:29:48.836Z,100175.02917496042
2023-05-14T17:32:44.537Z,100173.32183563232
2023-05-14T17:35:43.948Z,100163.78983860814
2023-05-14T17:38:40.501Z,100169.59477013344
2023-05-14T17:41:36.057Z,100157.55973475218
2023-05-14T17:44:31.585Z,100157.0052595544
2023-05-14T17:47:27.183Z,100153.63292078057
2023-05-14T17:50:22.741Z,100148.24295038247
2023-05-14T17:53:19.329Z,100146.80619467424
2023-05-14T17:56:16.916Z,100147.0182146619
2023-05-14T17:59:13.470Z,100164.40567832108
2023-05-14T18:02:08.957Z,100166.84752764022
2023-05-14T18:05:05.540Z,100164.34730746172
2023-05-14T18:08:01.125Z,100160.81872577804
2023-05-14T18:10:58.688Z,100163.49940757976
2023-05-14T18:13:54.276Z,100156.08491985156
2023-05-14T18:16:49.822Z,100151.00268509825
2023-05-14T18:19:45.329Z,100148.46823663863
2023-05-14T18:22:40.911Z,100148.11597889804
2023-05-14T18:25:39.463Z,100147.14500570076
2023-05-14T18:28:38.077Z,100152.05608888877
2023-05-14T19:26:49.326Z,100126.22660178241
2023-05-14T19:29:49.838Z,100125.63402014045
2023-05-14T19:35:52.930Z,100137.80282303922
2023-05-14T19:38:48.482Z,100129.6038861127
2023-05-14T19:41:53.060Z,100123.2297297023
2023-05-14T19:44:48.602Z,100118.52884507878
2023-05-14T19:47:44.185Z,100105.7777992514
2023-05-14T19:50:41.707Z,100095.66548114916
2023-05-14T19:53:37.275Z,100106.03954898911
2023-05-14T19:56:34.803Z,100103.65448216972
2023-05-14T19:59:31.434Z,100101.00849911498
2023-05-14T20:02:29.010Z,100096.83889955233
2023-05-14T20:05:28.535Z,100096.4577832188
2023-05-14T20:08:26.312Z,100090.63549709547
2023-05-14T20:11:22.631Z,100087.1678962251
2023-05-14T20:14:18.141Z,100096.4779087757
2023-05-14T20:17:13.882Z,100103.65448216972
2023-05-14T20:20:10.310Z,100100.12651270303
2023-05-14T20:23:05.880Z,100098.31119867478
2023-05-14T20:26:08.372Z,100091.81924101802
2023-05-14T20:29:03.988Z,100084.76357358818
2023-05-14T20:31:59.558Z,100079.29824355553
2023-05-14T20:34:55.128Z,100079.03272378766
2023-05-14T20:37:51.643Z,100078.70832786377
2023-05-14T20:40:48.206Z,100067.50859881732
2023-05-14T20:43:43.722Z,100066.04138080378
2023-05-14T20:46:40.362Z,100066.68992326269
2023-05-14T20:49:35.893Z,100067.98310554627
2023-05-14T20:55:40.985Z,100058.63541875657
2023-05-14T20:58:36.492Z,100059.93146325654
2023-05-14T21:01:32.107Z,100066.16135483919
2023-05-14T21:04:27.730Z,100074.73991268969
2023-05-14T21:07:23.222Z,100065.56299187905
2023-05-14T21:10:24.048Z,100069.12022229012
2023-05-14T21:13:20.334Z,100071.40353925913
2023-05-14T21:16:15.922Z,100073.22783525092
2023-05-14T21:19:13.237Z,100074.52037418084
2023-05-14T21:22:08.980Z,100077.46895679482
2023-05-14T21:25:05.594Z,100073.57790281098
2023-05-14T21:28:01.129Z,100073.05910028418
2023-05-14T21:30:56.692Z,100067.99263578758
2023-05-14T21:33:52.246Z,100051.63681278746
2023-05-14T21:36:47.854Z,100068.30984917206
2023-05-14T21:39:43.415Z,100061.8498443775
2023-05-14T21:42:40.919Z,100053.65691487872
2023-05-14T21:45:37.497Z,100069.3464810499
2023-05-14T21:48:34.134Z,100066.85471047234
2023-05-14T21:51:30.637Z,100070.2901413331
2023-05-14T21:54:27.152Z,100066.5768561842
2023-05-14T21:57:22.716Z,100067.74470236646
2023-05-14T22:00:23.441Z,100063.86890340247
2023-05-14T22:03:19.931Z,100067.96172439541
2023-05-14T22:06:16.396Z,100072.99762855507
2023-05-14T22:09:12.978Z,100077.43825640928
2023-05-14T22:12:08.534Z,100070.66944682907
2023-05-14T22:15:05.110Z,100067.9514410929
2023-05-14T22:18:02.678Z,100087.10967343302
2023-05-14T22:20:58.188Z,100075.12891636397
2023-05-14T22:23:53.732Z,100081.54524867807
2023-05-14T22:26:50.304Z,100079.93247817374
2023-05-14T22:29:45.881Z,100080.81435877804
2023-05-14T22:32:41.475Z,100064.21020868424
2023-05-14T22:35:37.013Z,100067.4655092873
2023-05-14T22:38:32.574Z,100077.3772535534
2023-05-14T22:41:28.134Z,100070.59833738816
2023-05-14T22:44:23.702Z,100060.54783861351
2023-05-14T22:47:20.287Z,100058.81413185742
2023-05-14T22:50:16.810Z,100047.64568302418
2023-05-14T22:53:12.340Z,100050.1714506172
2023-05-14T22:56:07.963Z,100048.13886393547
2023-05-14T22:59:03.487Z,100046.37552997457
2023-05-14T23:01:59.079Z,100041.64651690827
2023-05-14T23:04:54.687Z,100039.11125690448
2023-05-14T23:07:52.173Z,100043.99067264749
2023-05-14T23:10:47.746Z,100031.11582860132
2023-05-14T23:13:43.247Z,100035.81311576375
2023-05-14T23:16:39.858Z,100029.18385781729
2023-05-14T23:19:36.459Z,100029.53416037647
2023-05-14T23:22:31.986Z,100023.57410407093
2023-05-14T23:25:27.547Z,100019.83678145228
2023-05-14T23:28:24.077Z,100017.90433445151
2023-05-14T23:31:20.646Z,100019.15324342229
2023-05-14T23:34:18.228Z,100011.78156163653
2023-05-14T23:37:13.774Z,100012.90541804508
2023-05-14T23:40:10.327Z,100005.38250350553
2023-05-14T23:43:06.908Z,99996.38565764156
2023-05-14T23:46:02.546Z,99990.45859548588
2023-05-14T23:48:58.986Z,99993.60403548552
2023-05-14T23:51:56.595Z,100003.43751896708
2023-05-14T23:54:53.117Z,100001.2033531616
2023-05-14T23:57:48.667Z,99998.17902457574
